Pierreville, Canada
Current Conditions -  °F | °C
As of 5:00 AM on Monday 22 Dec 2014 (Local Time) from CYRQ Reporting Station
Overcast Overcast  
Wind Chill: 14°   Ceiling: 1200
Heat Index: 14°   Visibility: 9mi
Dew Point: 12°   Wind: 3mph
Humidity: 93%   Direction: 50°NE
Pressure: 30.42"   Gusts: NA
Location:  46.07°N, 72.8°W
Report Text: CYRQ 221000Z AUTO 05003KT 9SM OVC012 M10/M11 A3042 RMK SLP304
Loading
Personal Weather Stations






























Interactive Weather Map New forecast layout! Learn more

10-Day Weather Forecast

Advertisements
Track Severe Weather on mobile